Time;durP1;ratioP1;P1;durP2;ratioP2;P2;SDS_P1;SDS_P2;PMS_P1;PMS_P2;Temp;Humidity;BMP_temperature;BMP_pressure;BME280_temperature;BME280_humidity;BME280_pressure;Samples;Min_cycle;Max_cycle;Signal;HPM_P1;HPM_P2
2022/12/09 00:01:59;;;;;;;16.30;11.70;;;;;;;;;;4754177;30;20056;-70
2022/12/09 00:04:25;;;;;;;14.68;10.70;;;;;;;;;;4753965;30;20048;-70
2022/12/09 00:06:52;;;;;;;14.50;11.27;;;;;;;;;;4753692;30;20048;-70
2022/12/09 00:09:18;;;;;;;16.65;11.52;;;;;;;;;;4753609;30;20043;-70
2022/12/09 00:11:44;;;;;;;16.38;12.13;;;;;;;;;;4753771;30;20052;-70
2022/12/09 00:14:11;;;;;;;15.95;12.93;;;;;;;;;;4753585;30;20044;-70
2022/12/09 00:16:37;;;;;;;15.35;11.55;;;;;;;;;;4753719;30;20060;-70
2022/12/09 00:19:04;;;;;;;15.95;11.88;;;;;;;;;;4754314;30;20040;-70
2022/12/09 00:21:31;;;;;;;16.27;12.05;;;;;;;;;;4753819;30;20048;-69
2022/12/09 00:23:58;;;;;;;14.98;10.68;;;;;;;;;;4753484;30;20075;-70
2022/12/09 00:26:24;;;;;;;15.10;10.93;;;;;;;;;;4753641;30;20109;-70
2022/12/09 00:28:51;;;;;;;25.73;19.73;;;;;;;;;;4754228;30;20044;-70
2022/12/09 00:31:18;;;;;;;15.40;12.68;;;;;;;;;;4753825;30;20127;-70
2022/12/09 00:33:45;;;;;;;16.42;12.02;;;;;;;;;;4753915;30;20048;-70
2022/12/09 00:36:13;;;;;;;21.75;16.70;;;;;;;;;;4753553;30;20058;-70
2022/12/09 00:38:39;;;;;;;20.80;14.55;;;;;;;;;;4753392;30;20052;-70
2022/12/09 00:41:05;;;;;;;18.83;13.40;;;;;;;;;;4753610;30;20048;-70
2022/12/09 00:43:32;;;;;;;18.45;13.07;;;;;;;;;;4754141;30;20048;-70
2022/12/09 00:45:58;;;;;;;16.83;12.75;;;;;;;;;;4753077;30;20075;-70
2022/12/09 00:48:25;;;;;;;12.98;10.18;;;;;;;;;;4753792;30;20451;-70
2022/12/09 00:50:51;;;;;;;15.57;10.90;;;;;;;;;;4753227;30;20044;-70
2022/12/09 00:53:17;;;;;;;16.58;12.00;;;;;;;;;;4753099;30;20424;-70
2022/12/09 00:55:44;;;;;;;15.27;10.82;;;;;;;;;;4753695;30;20044;-70
2022/12/09 00:58:10;;;;;;;12.70;10.32;;;;;;;;;;4753159;30;20084;-70
2022/12/09 01:00:36;;;;;;;13.93;10.73;;;;;;;;;;4753443;30;20093;-70
2022/12/09 01:03:02;;;;;;;12.48;9.80;;;;;;;;;;4753741;30;20516;-70
2022/12/09 01:05:28;;;;;;;23.48;16.95;;;;;;;;;;4753664;30;20050;-70
2022/12/09 01:07:55;;;;;;;16.83;11.73;;;;;;;;;;4753049;30;20052;-70
2022/12/09 01:10:21;;;;;;;15.02;11.68;;;;;;;;;;4753643;30;20047;-70
2022/12/09 01:12:47;;;;;;;14.95;10.93;;;;;;;;;;4753607;30;20566;-70
2022/12/09 01:15:13;;;;;;;13.13;10.40;;;;;;;;;;4753329;30;20052;-70
2022/12/09 01:17:39;;;;;;;16.50;11.88;;;;;;;;;;4753244;30;20056;-70
2022/12/09 01:20:07;;;;;;;18.27;13.00;;;;;;;;;;4753305;30;20109;-70
2022/12/09 01:22:33;;;;;;;51.83;34.03;;;;;;;;;;4752920;30;20127;-70
2022/12/09 01:24:59;;;;;;;45.90;31.08;;;;;;;;;;4752960;30;20140;-70
2022/12/09 01:27:25;;;;;;;22.45;15.68;;;;;;;;;;4752979;30;20048;-70
2022/12/09 01:29:52;;;;;;;25.80;17.13;;;;;;;;;;4752971;30;20131;-70
2022/12/09 01:32:18;;;;;;;32.13;21.17;;;;;;;;;;4752761;30;20127;-70
2022/12/09 01:34:44;;;;;;;47.50;24.55;;;;;;;;;;4753392;30;20048;-70
2022/12/09 01:37:10;;;;;;;42.45;25.65;;;;;;;;;;4752917;30;20048;-70
2022/12/09 01:39:36;;;;;;;38.20;25.98;;;;;;;;;;4754751;30;20497;-70
2022/12/09 01:42:03;;;;;;;29.52;19.83;;;;;;;;;;4756408;30;20127;-70
2022/12/09 01:44:33;;;;;;;25.13;17.75;;;;;;;;;;4756099;30;20087;-70
2022/12/09 01:47:00;;;;;;;17.73;13.97;;;;;;;;;;4755964;30;20075;-70
2022/12/09 01:49:26;;;;;;;24.58;15.98;;;;;;;;;;4756703;30;20139;-70
2022/12/09 01:52:01;;;;;;;26.63;17.60;;;;;;;;;;4755829;30;20055;-70
2022/12/09 01:54:28;;;;;;;29.77;21.00;;;;;;;;;;4755854;30;20044;-70
2022/12/09 01:56:54;;;;;;;24.95;18.40;;;;;;;;;;4755996;30;20044;-70
2022/12/09 01:59:21;;;;;;;21.35;15.45;;;;;;;;;;4756525;30;20044;-70
2022/12/09 02:01:48;;;;;;;16.73;12.65;;;;;;;;;;4756231;30;20509;-70
2022/12/09 02:04:14;;;;;;;17.23;12.07;;;;;;;;;;4755934;30;20044;-70
2022/12/09 02:06:40;;;;;;;16.23;11.82;;;;;;;;;;4755671;30;20117;-70
2022/12/09 02:09:06;;;;;;;13.48;10.57;;;;;;;;;;4755842;30;20040;-70
2022/12/09 02:11:51;;;;;;;8.63;7.40;;;;;;;;;;4756092;30;20048;-70
2022/12/09 02:14:17;;;;;;;7.82;7.03;;;;;;;;;;4756021;30;20043;-70
2022/12/09 02:16:59;;;;;;;7.32;6.03;;;;;;;;;;4755392;30;20110;-70
2022/12/09 02:19:35;;;;;;;10.73;8.23;;;;;;;;;;4756148;30;20051;-70
2022/12/09 02:22:01;;;;;;;6.13;5.38;;;;;;;;;;4754491;30;20442;-70
2022/12/09 02:24:30;;;;;;;7.50;5.53;;;;;;;;;;4755618;30;20043;-70
2022/12/09 02:26:56;;;;;;;6.65;5.97;;;;;;;;;;4755732;30;20052;-70
2022/12/09 02:29:28;;;;;;;6.70;5.93;;;;;;;;;;4755798;30;20080;-70
2022/12/09 02:32:07;;;;;;;7.00;5.63;;;;;;;;;;4755645;30;20048;-70
2022/12/09 02:34:34;;;;;;;7.30;6.00;;;;;;;;;;4755365;30;20059;-70
2022/12/09 02:37:03;;;;;;;7.00;5.90;;;;;;;;;;4755040;30;20101;-70
2022/12/09 02:39:34;;;;;;;10.00;6.18;;;;;;;;;;4755463;30;20055;-70
2022/12/09 02:42:02;;;;;;;9.05;6.28;;;;;;;;;;4755500;30;20044;-70
2022/12/09 02:44:29;;;;;;;6.32;5.65;;;;;;;;;;4755802;30;20047;-70
2022/12/09 02:46:55;;;;;;;6.63;5.57;;;;;;;;;;4755027;30;20071;-70
2022/12/09 02:49:22;;;;;;;5.90;5.20;;;;;;;;;;4755413;30;20127;-70
2022/12/09 02:51:49;;;;;;;6.65;5.18;;;;;;;;;;4754991;30;20165;-70
2022/12/09 02:54:16;;;;;;;6.50;5.45;;;;;;;;;;4754870;30;20097;-70
2022/12/09 02:56:51;;;;;;;7.22;5.43;;;;;;;;;;4754742;30;20052;-70
2022/12/09 02:59:17;;;;;;;6.22;5.30;;;;;;;;;;4755372;30;20052;-70
2022/12/09 03:01:56;;;;;;;6.20;5.28;;;;;;;;;;4755271;30;20101;-70
2022/12/09 03:04:23;;;;;;;8.18;6.95;;;;;;;;;;4755522;30;20079;-70
2022/12/09 03:06:51;;;;;;;7.85;7.05;;;;;;;;;;4754738;30;20051;-70
2022/12/09 03:09:25;;;;;;;10.25;9.13;;;;;;;;;;4755381;30;20047;-70
2022/12/09 03:11:52;;;;;;;12.75;8.18;;;;;;;;;;4754842;30;20137;-70
2022/12/09 03:14:29;;;;;;;8.05;6.95;;;;;;;;;;4755035;30;20044;-70
2022/12/09 03:16:58;;;;;;;8.68;6.65;;;;;;;;;;4754791;30;20052;-70
2022/12/09 03:19:31;;;;;;;9.68;7.90;;;;;;;;;;4754680;30;20052;-70
2022/12/09 03:22:00;;;;;;;10.18;8.77;;;;;;;;;;4754703;30;20063;-70
2022/12/09 03:24:28;;;;;;;9.75;7.85;;;;;;;;;;4754332;30;20517;-70
2022/12/09 03:26:54;;;;;;;9.82;7.20;;;;;;;;;;4754540;30;20139;-70
2022/12/09 03:29:23;;;;;;;9.90;6.60;;;;;;;;;;4754525;30;20071;-70
2022/12/09 03:31:50;;;;;;;7.20;6.30;;;;;;;;;;4754792;30;20059;-70
2022/12/09 03:34:19;;;;;;;8.13;5.72;;;;;;;;;;4754453;30;20044;-70
2022/12/09 03:36:47;;;;;;;9.00;6.07;;;;;;;;;;4754096;30;20067;-70
2022/12/09 03:39:15;;;;;;;7.93;6.18;;;;;;;;;;4754107;30;20131;-70
2022/12/09 03:41:45;;;;;;;7.90;7.00;;;;;;;;;;4753215;30;20413;-70
2022/12/09 03:44:13;;;;;;;9.13;6.93;;;;;;;;;;4754229;30;20043;-70
2022/12/09 03:46:39;;;;;;;11.73;6.80;;;;;;;;;;4753826;30;20072;-70
2022/12/09 03:49:05;;;;;;;10.07;8.00;;;;;;;;;;4753934;30;20504;-70
2022/12/09 03:51:41;;;;;;;10.32;7.60;;;;;;;;;;4754038;30;20524;-70
2022/12/09 03:54:14;;;;;;;10.55;8.55;;;;;;;;;;4754452;30;20048;-70
2022/12/09 03:56:44;;;;;;;11.27;7.82;;;;;;;;;;4754086;30;20063;-70
2022/12/09 03:59:12;;;;;;;11.75;8.60;;;;;;;;;;4754061;30;20384;-70
2022/12/09 04:01:39;;;;;;;11.07;7.53;;;;;;;;;;4753895;30;20056;-70
2022/12/09 04:04:06;;;;;;;9.95;8.43;;;;;;;;;;4753984;30;20051;-70
2022/12/09 04:06:32;;;;;;;10.00;8.10;;;;;;;;;;4753528;30;20051;-70
2022/12/09 04:08:58;;;;;;;8.98;7.88;;;;;;;;;;4754164;30;20623;-70
2022/12/09 04:11:24;;;;;;;8.50;6.82;;;;;;;;;;4753777;30;20048;-70
2022/12/09 04:13:50;;;;;;;7.60;6.80;;;;;;;;;;4753603;30;20044;-70
2022/12/09 04:16:16;;;;;;;8.13;6.63;;;;;;;;;;4754094;30;20044;-70
2022/12/09 04:18:43;;;;;;;9.60;7.07;;;;;;;;;;4753579;30;20070;-70
2022/12/09 04:21:10;;;;;;;10.63;7.90;;;;;;;;;;4753796;30;20206;-70
2022/12/09 04:23:36;;;;;;;8.85;6.97;;;;;;;;;;4753682;30;20044;-70
2022/12/09 04:26:02;;;;;;;8.88;6.70;;;;;;;;;;4753741;30;20052;-70
2022/12/09 04:28:28;;;;;;;8.07;5.68;;;;;;;;;;4753480;30;20075;-70
2022/12/09 04:30:54;;;;;;;8.07;6.30;;;;;;;;;;4754263;30;20040;-70
2022/12/09 04:33:21;;;;;;;12.70;7.80;;;;;;;;;;4754450;30;20074;-70
2022/12/09 04:35:47;;;;;;;9.98;8.10;;;;;;;;;;4753688;30;20105;-70
2022/12/09 04:38:13;;;;;;;12.80;9.13;;;;;;;;;;4753253;30;20052;-70
2022/12/09 04:40:39;;;;;;;13.10;9.70;;;;;;;;;;4753819;30;20135;-69
2022/12/09 04:43:05;;;;;;;21.40;12.45;;;;;;;;;;4753983;30;20049;-70
2022/12/09 04:45:31;;;;;;;20.80;15.18;;;;;;;;;;4753343;30;20097;-70
2022/12/09 04:47:58;;;;;;;19.10;13.32;;;;;;;;;;4753454;30;20063;-70
2022/12/09 04:50:25;;;;;;;15.98;11.73;;;;;;;;;;4753802;30;20052;-70
2022/12/09 04:52:51;;;;;;;14.25;11.60;;;;;;;;;;4753788;30;20088;-70
2022/12/09 04:55:17;;;;;;;12.75;10.25;;;;;;;;;;4753490;30;20040;-70
2022/12/09 04:57:43;;;;;;;13.43;10.13;;;;;;;;;;4753439;30;20138;-70
2022/12/09 05:00:10;;;;;;;15.88;11.63;;;;;;;;;;4752893;30;20052;-69
2022/12/09 05:02:36;;;;;;;10.57;8.75;;;;;;;;;;4770119;30;20048;-70
2022/12/09 05:05:02;;;;;;;11.02;7.78;;;;;;;;;;4771194;30;20048;-70
2022/12/09 05:07:30;;;;;;;11.70;7.60;;;;;;;;;;4771031;30;20113;-70
2022/12/09 05:09:57;;;;;;;11.68;9.20;;;;;;;;;;4770891;30;20046;-70
2022/12/09 05:12:23;;;;;;;10.80;7.43;;;;;;;;;;4770574;30;20101;-70
2022/12/09 05:14:49;;;;;;;11.68;7.95;;;;;;;;;;4773687;30;20047;-70
2022/12/09 05:17:15;;;;;;;10.60;8.50;;;;;;;;;;4774360;30;20055;-70
2022/12/09 05:19:42;;;;;;;9.27;7.07;;;;;;;;;;4774942;30;20075;-70
2022/12/09 05:22:08;;;;;;;12.50;6.82;;;;;;;;;;4774325;30;20052;-70
2022/12/09 05:24:34;;;;;;;12.57;6.82;;;;;;;;;;4774249;30;20185;-70
2022/12/09 05:27:00;;;;;;;11.63;7.75;;;;;;;;;;4774032;30;20128;-70
2022/12/09 05:29:26;;;;;;;10.75;7.85;;;;;;;;;;4774339;30;20508;-70
2022/12/09 05:31:52;;;;;;;9.98;8.10;;;;;;;;;;4773916;30;20055;-69
2022/12/09 05:34:19;;;;;;;12.65;7.68;;;;;;;;;;4773959;30;20066;-70
2022/12/09 05:36:45;;;;;;;11.05;7.80;;;;;;;;;;4760220;30;20068;-70
2022/12/09 05:39:11;;;;;;;13.57;10.57;;;;;;;;;;4765155;30;20040;-70
2022/12/09 05:41:37;;;;;;;9.93;7.60;;;;;;;;;;4768033;30;20056;-70
2022/12/09 05:44:03;;;;;;;15.48;7.30;;;;;;;;;;4757922;30;20102;-70
2022/12/09 05:46:29;;;;;;;9.60;6.90;;;;;;;;;;4773198;30;20063;-70
2022/12/09 05:48:55;;;;;;;11.48;7.93;;;;;;;;;;4771910;30;20071;-70
2022/12/09 05:51:26;;;;;;;13.18;8.10;;;;;;;;;;4773469;30;20058;-70
2022/12/09 05:53:52;;;;;;;11.55;7.80;;;;;;;;;;4773476;30;20055;-70
2022/12/09 05:56:19;;;;;;;11.95;8.43;;;;;;;;;;4761463;30;20052;-70
2022/12/09 05:58:46;;;;;;;15.45;8.45;;;;;;;;;;4765678;30;20052;-70
2022/12/09 06:01:12;;;;;;;12.65;8.43;;;;;;;;;;4773422;30;20492;-70
2022/12/09 06:03:39;;;;;;;16.02;7.85;;;;;;;;;;4770450;30;20086;-70
2022/12/09 06:06:09;;;;;;;12.85;7.93;;;;;;;;;;4771931;30;20532;-70
2022/12/09 06:08:35;;;;;;;12.32;9.07;;;;;;;;;;4756831;30;20091;-70
2022/12/09 06:11:01;;;;;;;17.35;11.50;;;;;;;;;;4756139;30;20061;-70
2022/12/09 06:13:28;;;;;;;14.95;10.20;;;;;;;;;;4763663;30;20508;-70
2022/12/09 06:15:54;;;;;;;15.77;11.10;;;;;;;;;;4773506;30;20044;-70
2022/12/09 06:18:20;;;;;;;18.42;12.43;;;;;;;;;;4772844;30;20151;-70
2022/12/09 06:20:46;;;;;;;16.02;12.27;;;;;;;;;;4772547;30;20043;-70
2022/12/09 06:23:12;;;;;;;17.25;11.80;;;;;;;;;;4765643;30;20420;-70
2022/12/09 06:25:43;;;;;;;16.52;12.30;;;;;;;;;;4755177;30;20098;-70
2022/12/09 06:28:09;;;;;;;18.85;12.65;;;;;;;;;;4756076;30;20059;-70
2022/12/09 06:30:35;;;;;;;15.32;11.02;;;;;;;;;;4760623;30;20044;-70
2022/12/09 06:33:01;;;;;;;17.42;11.80;;;;;;;;;;4774707;30;20090;-69
2022/12/09 06:35:27;;;;;;;16.77;12.25;;;;;;;;;;4776332;30;20044;-69
2022/12/09 06:37:54;;;;;;;17.23;12.20;;;;;;;;;;4762770;30;20059;-70
2022/12/09 06:40:23;;;;;;;46.55;24.60;;;;;;;;;;4754589;30;20070;-70
2022/12/09 06:42:50;;;;;;;30.63;17.23;;;;;;;;;;4754447;30;20064;-70
2022/12/09 06:45:19;;;;;;;20.55;13.05;;;;;;;;;;4754424;30;20044;-70
2022/12/09 06:47:46;;;;;;;16.55;11.80;;;;;;;;;;4754298;30;20149;-70
2022/12/09 06:50:12;;;;;;;14.40;10.13;;;;;;;;;;4754083;30;20071;-70
2022/12/09 06:52:39;;;;;;;13.63;10.25;;;;;;;;;;4755971;30;20066;-70
2022/12/09 06:55:06;;;;;;;12.73;9.88;;;;;;;;;;4758201;30;20126;-70
2022/12/09 06:57:33;;;;;;;12.18;9.88;;;;;;;;;;4757308;30;20051;-69
2022/12/09 07:00:00;;;;;;;12.32;9.07;;;;;;;;;;4754558;30;20668;-71
2022/12/09 07:02:26;;;;;;;12.95;9.50;;;;;;;;;;4763066;30;20047;-70
2022/12/09 07:04:53;;;;;;;10.50;8.15;;;;;;;;;;4771079;30;20082;-71
2022/12/09 07:07:19;;;;;;;11.65;8.40;;;;;;;;;;4762496;30;20066;-72
2022/12/09 07:09:45;;;;;;;9.80;7.75;;;;;;;;;;4755860;30;20052;-69
2022/12/09 07:12:12;;;;;;;9.55;7.72;;;;;;;;;;4754672;30;20130;-69
2022/12/09 07:14:38;;;;;;;10.02;7.65;;;;;;;;;;4768678;30;20047;-69
2022/12/09 07:17:04;;;;;;;9.98;7.75;;;;;;;;;;4772139;30;20051;-69
2022/12/09 07:19:31;;;;;;;8.02;6.72;;;;;;;;;;4770776;30;20051;-69
2022/12/09 07:21:57;;;;;;;8.52;6.45;;;;;;;;;;4756867;30;20494;-70
2022/12/09 07:24:23;;;;;;;9.75;7.15;;;;;;;;;;4772555;30;20044;-70
2022/12/09 07:26:50;;;;;;;9.05;6.70;;;;;;;;;;4772057;30;20059;-70
2022/12/09 07:29:17;;;;;;;10.70;7.25;;;;;;;;;;4766727;30;20048;-69
2022/12/09 07:31:43;;;;;;;10.32;7.60;;;;;;;;;;4754214;30;20586;-69
2022/12/09 07:34:10;;;;;;;10.27;7.50;;;;;;;;;;4754785;30;20513;-70
2022/12/09 07:36:36;;;;;;;9.45;6.80;;;;;;;;;;4753242;30;20505;-70
2022/12/09 07:39:13;;;;;;;10.30;7.97;;;;;;;;;;4760467;30;20067;-69
2022/12/09 07:41:39;;;;;;;11.57;8.85;;;;;;;;;;4754352;30;20056;-69
2022/12/09 07:44:06;;;;;;;13.23;9.00;;;;;;;;;;4758701;30;20040;-69
2022/12/09 07:46:32;;;;;;;20.05;11.52;;;;;;;;;;4771841;30;20071;-69
2022/12/09 07:48:58;;;;;;;15.25;10.20;;;;;;;;;;4772253;30;20048;-69
2022/12/09 07:51:24;;;;;;;14.15;11.05;;;;;;;;;;4772478;30;20051;-69
2022/12/09 07:53:51;;;;;;;18.92;14.27;;;;;;;;;;4775812;30;20051;-69
2022/12/09 07:56:20;;;;;;;31.73;22.17;;;;;;;;;;4768706;30;20131;-70
2022/12/09 07:58:46;;;;;;;26.80;19.08;;;;;;;;;;4753843;30;20398;-70
2022/12/09 08:01:17;;;;;;;17.15;12.52;;;;;;;;;;4754615;30;20044;-71
2022/12/09 08:03:43;;;;;;;29.70;20.45;;;;;;;;;;4754034;30;20052;-70
2022/12/09 08:06:14;;;;;;;50.63;31.73;;;;;;;;;;4753883;30;20181;-70
2022/12/09 08:08:40;;;;;;;35.00;22.02;;;;;;;;;;4754136;30;20488;-70
2022/12/09 08:11:07;;;;;;;29.15;20.83;;;;;;;;;;4752595;30;20489;-70
2022/12/09 08:13:33;;;;;;;33.08;21.27;;;;;;;;;;4770539;30;20044;-69
2022/12/09 08:16:07;;;;;;;45.00;26.85;;;;;;;;;;4754026;30;20052;-69
2022/12/09 08:18:33;;;;;;;83.28;42.13;;;;;;;;;;4754290;30;20052;-69
2022/12/09 08:21:03;;;;;;;67.57;37.83;;;;;;;;;;4754104;30;20054;-71
2022/12/09 08:23:29;;;;;;;36.10;22.60;;;;;;;;;;4753493;30;20055;-72
2022/12/09 08:25:56;;;;;;;23.88;14.85;;;;;;;;;;4750549;30;20052;-71
2022/12/09 08:28:23;;;;;;;49.00;26.35;;;;;;;;;;4751398;30;20054;-71
2022/12/09 08:30:49;;;;;;;255.00;102.03;;;;;;;;;;4753490;30;20359;-71
2022/12/09 08:33:16;;;;;;;150.23;61.67;;;;;;;;;;4762085;30;20102;-71
2022/12/09 08:35:42;;;;;;;97.85;42.58;;;;;;;;;;4753681;30;20048;-71
2022/12/09 08:38:09;;;;;;;169.38;67.55;;;;;;;;;;4752429;30;20056;-71
2022/12/09 08:40:35;;;;;;;34.00;20.45;;;;;;;;;;4752745;30;20083;-71
2022/12/09 08:43:08;;;;;;;34.60;19.08;;;;;;;;;;4753293;30;20059;-71
2022/12/09 08:45:38;;;;;;;23.17;16.15;;;;;;;;;;4752804;30;20058;-70
2022/12/09 08:48:04;;;;;;;42.40;25.85;;;;;;;;;;4754358;30;20064;-71
2022/12/09 08:50:32;;;;;;;28.60;19.15;;;;;;;;;;4755687;30;20512;-71
2022/12/09 08:52:58;;;;;;;33.95;20.95;;;;;;;;;;4757068;30;20052;-71
2022/12/09 08:55:25;;;;;;;41.80;24.05;;;;;;;;;;4756465;30;20123;-72
2022/12/09 08:57:51;;;;;;;39.80;21.48;;;;;;;;;;4756265;30;20058;-72
2022/12/09 09:00:18;;;;;;;50.63;26.15;;;;;;;;;;4756126;30;20412;-72
2022/12/09 09:02:44;;;;;;;32.35;20.77;;;;;;;;;;4763176;30;20516;-71
2022/12/09 09:05:10;;;;;;;33.95;18.50;;;;;;;;;;4759966;30;20072;-69
2022/12/09 09:07:37;;;;;;;27.98;17.10;;;;;;;;;;4760967;30;20063;-69
2022/12/09 09:10:03;;;;;;;50.53;22.70;;;;;;;;;;4769037;30;20078;-69
2022/12/09 09:12:30;;;;;;;34.15;18.75;;;;;;;;;;4756971;30;20052;-69
2022/12/09 09:14:56;;;;;;;134.25;57.15;;;;;;;;;;4758163;30;20409;-69
2022/12/09 09:17:22;;;;;;;135.00;57.13;;;;;;;;;;4763127;30;20048;-69
2022/12/09 09:19:49;;;;;;;36.13;18.50;;;;;;;;;;4769296;30;20048;-69
2022/12/09 09:22:15;;;;;;;28.95;17.40;;;;;;;;;;4759492;30;20087;-70
2022/12/09 09:24:41;;;;;;;53.30;28.30;;;;;;;;;;4767263;30;20137;-71
2022/12/09 09:27:07;;;;;;;35.20;21.60;;;;;;;;;;4765342;30;20055;-71
2022/12/09 09:29:33;;;;;;;35.67;20.20;;;;;;;;;;4762737;30;20056;-71
2022/12/09 09:32:00;;;;;;;20.75;14.45;;;;;;;;;;4759649;30;20063;-69
2022/12/09 09:34:26;;;;;;;19.88;13.85;;;;;;;;;;4773078;30;20063;-69
2022/12/09 09:36:53;;;;;;;20.33;13.07;;;;;;;;;;4759384;30;20052;-69
2022/12/09 09:39:19;;;;;;;14.85;10.95;;;;;;;;;;4763479;30;20443;-71
2022/12/09 09:41:48;;;;;;;15.05;11.18;;;;;;;;;;4759306;30;20124;-71
2022/12/09 09:44:21;;;;;;;12.60;10.00;;;;;;;;;;4771562;30;20052;-71
2022/12/09 09:46:48;;;;;;;15.27;10.65;;;;;;;;;;4756945;30;20130;-72
2022/12/09 09:49:29;;;;;;;18.20;11.73;;;;;;;;;;4761266;30;20052;-72
2022/12/09 09:51:56;;;;;;;8.77;6.50;;;;;;;;;;4762080;30;20101;-69
2022/12/09 09:54:22;;;;;;;9.57;7.63;;;;;;;;;;4767187;30;20508;-68
2022/12/09 09:56:53;;;;;;;8.73;6.50;;;;;;;;;;4768239;30;20508;-68
2022/12/09 09:59:26;;;;;;;8.30;6.20;;;;;;;;;;4760736;30;20062;-68
2022/12/09 10:01:55;;;;;;;9.27;6.53;;;;;;;;;;4765859;30;20047;-68
2022/12/09 10:04:42;;;;;;;6.38;5.70;;;;;;;;;;4757905;30;20040;-68
2022/12/09 10:07:31;;;;;;;8.23;5.63;;;;;;;;;;4755683;30;20063;-68
2022/12/09 10:10:03;;;;;;;5.45;3.97;;;;;;;;;;4755507;30;20052;-68
2022/12/09 10:12:41;;;;;;;4.78;3.78;;;;;;;;;;4755871;30;20055;-69
2022/12/09 10:15:07;;;;;;;3.45;2.92;;;;;;;;;;4756156;30;20496;-69
2022/12/09 10:17:50;;;;;;;2.70;2.42;;;;;;;;;;4754102;30;20143;-68
2022/12/09 10:20:20;;;;;;;2.90;1.80;;;;;;;;;;4755115;30;20044;-68
2022/12/09 10:22:51;;;;;;;2.63;1.60;;;;;;;;;;4764496;30;20055;-68
2022/12/09 10:25:21;;;;;;;2.17;1.98;;;;;;;;;;4757258;30;20076;-68
2022/12/09 10:27:52;;;;;;;2.70;1.57;;;;;;;;;;4771555;30;20077;-68
2022/12/09 10:30:19;;;;;;;1.30;1.20;;;;;;;;;;4769879;30;20052;-68
2022/12/09 10:32:45;;;;;;;1.55;1.17;;;;;;;;;;4755457;30;20059;-68
2022/12/09 10:35:19;;;;;;;5.63;2.70;;;;;;;;;;4761020;30;20105;-68
2022/12/09 10:37:45;;;;;;;3.83;1.75;;;;;;;;;;4755365;30;20044;-69
2022/12/09 10:40:12;;;;;;;1.67;0.93;;;;;;;;;;4764960;30;20052;-68
2022/12/09 10:45:29;;;;;;;13.05;5.85;;;;;;;;;;4754798;30;20043;-69
2022/12/09 10:47:55;;;;;;;14.57;6.22;;;;;;;;;;4770683;30;20091;-67
2022/12/09 10:50:30;;;;;;;13.43;6.40;;;;;;;;;;4773812;30;20052;-67
2022/12/09 10:52:56;;;;;;;11.30;5.40;;;;;;;;;;4772793;30;20122;-67
2022/12/09 10:55:35;;;;;;;20.13;8.60;;;;;;;;;;4757842;30;20051;-67
2022/12/09 10:58:09;;;;;;;10.38;5.47;;;;;;;;;;4754475;30;20138;-67
2022/12/09 11:00:35;;;;;;;11.02;5.72;;;;;;;;;;4753886;30;20592;-67
2022/12/09 11:03:01;;;;;;;7.65;3.83;;;;;;;;;;4755692;30;20052;-67
2022/12/09 11:05:28;;;;;;;10.90;4.65;;;;;;;;;;4752947;30;20044;-67
2022/12/09 11:07:56;;;;;;;7.72;3.72;;;;;;;;;;4753713;30;20056;-67
2022/12/09 11:10:24;;;;;;;13.20;7.30;;;;;;;;;;4754253;30;20078;-67
2022/12/09 11:12:54;;;;;;;2.72;2.22;;;;;;;;;;4753928;30;20052;-67
2022/12/09 11:15:25;;;;;;;16.75;8.85;;;;;;;;;;4754179;30;20512;-67
2022/12/09 11:17:58;;;;;;;14.98;7.65;;;;;;;;;;4752541;30;20086;-68
2022/12/09 11:20:26;;;;;;;5.28;3.08;;;;;;;;;;4753973;30;20048;-68
2022/12/09 11:23:00;;;;;;;13.63;7.90;;;;;;;;;;4753089;30;20048;-68
2022/12/09 11:25:28;;;;;;;7.68;3.83;;;;;;;;;;4753335;30;20040;-69
2022/12/09 11:27:59;;;;;;;6.22;3.42;;;;;;;;;;4753777;30;20120;-69
2022/12/09 11:30:31;;;;;;;6.85;3.72;;;;;;;;;;4753830;30;20048;-69
2022/12/09 11:33:04;;;;;;;6.05;3.55;;;;;;;;;;4752258;30;20123;-73
2022/12/09 11:35:42;;;;;;;8.90;5.28;;;;;;;;;;4754567;30;20123;-71
2022/12/09 11:38:22;;;;;;;4.78;2.25;;;;;;;;;;4754050;30;20401;-72
2022/12/09 11:41:03;;;;;;;10.82;5.53;;;;;;;;;;4755152;30;20044;-72
2022/12/09 11:43:36;;;;;;;11.13;5.55;;;;;;;;;;4754431;30;20055;-73
2022/12/09 11:46:08;;;;;;;11.98;5.63;;;;;;;;;;4754529;30;20169;-73
2022/12/09 11:48:35;;;;;;;12.13;5.47;;;;;;;;;;4754528;30;20047;-72
2022/12/09 11:51:01;;;;;;;12.50;5.95;;;;;;;;;;4754154;30;20048;-73
2022/12/09 11:53:29;;;;;;;3.65;2.75;;;;;;;;;;4754381;30;20565;-73
2022/12/09 11:56:07;;;;;;;6.35;3.28;;;;;;;;;;4753883;30;20520;-73
2022/12/09 11:58:59;;;;;;;3.10;2.30;;;;;;;;;;4753774;30;20044;-73
2022/12/09 12:01:25;;;;;;;4.10;2.10;;;;;;;;;;4746270;30;20696;-73
2022/12/09 12:03:53;;;;;;;9.23;4.57;;;;;;;;;;4754035;30;20493;-73
2022/12/09 12:06:21;;;;;;;7.60;4.40;;;;;;;;;;4753751;30;20568;-73
2022/12/09 12:09:10;;;;;;;2.95;1.40;;;;;;;;;;4753550;30;20046;-73
2022/12/09 12:11:40;;;;;;;3.10;1.20;;;;;;;;;;4753807;30;20044;-73
2022/12/09 12:14:18;;;;;;;4.03;2.28;;;;;;;;;;4753943;30;20044;-73
2022/12/09 12:16:56;;;;;;;2.10;0.90;;;;;;;;;;4754013;30;20114;-73
2022/12/09 12:19:34;;;;;;;4.75;2.80;;;;;;;;;;4753966;30;20059;-73
2022/12/09 12:22:09;;;;;;;4.55;2.70;;;;;;;;;;4753447;30;20052;-73
2022/12/09 12:24:50;;;;;;;3.80;2.42;;;;;;;;;;4753847;30;20043;-73
2022/12/09 12:27:31;;;;;;;4.25;2.03;;;;;;;;;;4753802;30;20517;-73
2022/12/09 12:30:02;;;;;;;3.70;1.80;;;;;;;;;;4753516;30;20044;-73
2022/12/09 12:32:37;;;;;;;4.65;2.97;;;;;;;;;;4753631;30;20161;-73
2022/12/09 12:35:29;;;;;;;2.95;2.28;;;;;;;;;;4754183;30;20072;-73
2022/12/09 12:37:59;;;;;;;4.95;3.67;;;;;;;;;;4753758;30;20055;-73
2022/12/09 12:40:32;;;;;;;3.53;2.60;;;;;;;;;;4753919;30;20052;-73
2022/12/09 12:46:18;;;;;;;1.73;1.50;;;;;;;;;;4746702;30;20098;-73
2022/12/09 12:48:53;;;;;;;1.92;1.23;;;;;;;;;;4753595;30;20055;-73
2022/12/09 12:51:19;;;;;;;2.25;1.00;;;;;;;;;;4754145;30;20505;-73
2022/12/09 12:54:08;;;;;;;1.50;1.08;;;;;;;;;;4752498;30;20433;-73
2022/12/09 12:56:41;;;;;;;2.45;1.55;;;;;;;;;;4750756;30;20052;-73
2022/12/09 12:59:08;;;;;;;1.80;1.50;;;;;;;;;;4754270;30;20133;-73
2022/12/09 13:01:35;;;;;;;1.30;1.20;;;;;;;;;;4753942;30;20059;-73
2022/12/09 13:04:20;;;;;;;1.98;0.93;;;;;;;;;;4753410;30;20101;-73
2022/12/09 13:06:47;;;;;;;1.52;1.20;;;;;;;;;;4753414;30;20044;-73
2022/12/09 13:09:34;;;;;;;2.20;1.80;;;;;;;;;;4753640;30;20082;-73
2022/12/09 13:12:13;;;;;;;3.22;1.70;;;;;;;;;;4753892;30;20059;-72
2022/12/09 13:14:51;;;;;;;4.13;2.78;;;;;;;;;;4753405;30;20044;-73
2022/12/09 13:17:19;;;;;;;3.63;3.17;;;;;;;;;;4753689;30;20052;-73
2022/12/09 13:19:50;;;;;;;2.20;1.90;;;;;;;;;;4753680;30;20139;-73
2022/12/09 13:22:38;;;;;;;1.42;1.30;;;;;;;;;;4753589;30;20500;-73
2022/12/09 13:25:23;;;;;;;3.67;2.38;;;;;;;;;;4753570;30;20052;-73
2022/12/09 13:27:52;;;;;;;7.53;3.33;;;;;;;;;;4754074;30;20135;-73
2022/12/09 13:30:22;;;;;;;2.47;1.85;;;;;;;;;;4754065;30;20044;-73
2022/12/09 13:32:51;;;;;;;2.20;1.60;;;;;;;;;;4753718;30;20083;-73
2022/12/09 13:35:26;;;;;;;3.15;1.52;;;;;;;;;;4755244;30;20298;-73
2022/12/09 13:37:53;;;;;;;2.83;2.10;;;;;;;;;;4756356;30;20044;-73
2022/12/09 13:40:26;;;;;;;2.58;1.60;;;;;;;;;;4756359;30;20445;-73
2022/12/09 13:42:57;;;;;;;2.97;1.30;;;;;;;;;;4757246;30;20055;-73
2022/12/09 13:45:23;;;;;;;3.63;2.60;;;;;;;;;;4756927;30;20048;-73
2022/12/09 13:47:52;;;;;;;2.25;1.80;;;;;;;;;;4756443;30;20090;-73
2022/12/09 13:50:25;;;;;;;2.70;1.75;;;;;;;;;;4756706;30;20040;-73
2022/12/09 13:52:52;;;;;;;4.68;2.22;;;;;;;;;;4754346;30;20048;-73
2022/12/09 13:55:39;;;;;;;1.73;1.08;;;;;;;;;;4755942;30;20044;-73
2022/12/09 13:58:14;;;;;;;2.35;1.00;;;;;;;;;;4756039;30;20056;-73
2022/12/09 14:00:41;;;;;;;2.00;1.50;;;;;;;;;;4756266;30;20568;-73
2022/12/09 14:03:27;;;;;;;1.83;1.23;;;;;;;;;;4756394;30;20048;-73
2022/12/09 14:05:55;;;;;;;3.10;1.35;;;;;;;;;;4756429;30;20195;-73
2022/12/09 14:08:26;;;;;;;6.35;2.90;;;;;;;;;;4755813;30;20051;-73
2022/12/09 14:10:52;;;;;;;;;;;;;;;;;;4756780;30;20051;-73
2022/12/09 14:13:26;;;;;;;3.38;2.00;;;;;;;;;;4755817;30;19914;-73
2022/12/09 14:16:08;;;;;;;1.60;1.27;;;;;;;;;;4756080;30;20055;-73
2022/12/09 14:18:34;;;;;;;2.95;1.90;;;;;;;;;;4755996;30;20058;-73
2022/12/09 14:21:18;;;;;;;1.30;1.20;;;;;;;;;;4755644;30;20051;-73
2022/12/09 14:24:03;;;;;;;4.05;2.47;;;;;;;;;;4755907;30;20052;-73
2022/12/09 14:26:36;;;;;;;2.95;1.58;;;;;;;;;;4755427;30;20272;-72
2022/12/09 14:29:03;;;;;;;3.47;2.60;;;;;;;;;;4755668;30;20139;-73
2022/12/09 14:31:48;;;;;;;3.88;1.60;;;;;;;;;;4755519;30;20055;-73
2022/12/09 14:34:23;;;;;;;1.20;1.10;;;;;;;;;;4755736;30;20485;-73
2022/12/09 14:36:52;;;;;;;16.40;5.28;;;;;;;;;;4755002;30;20060;-73
2022/12/09 14:39:30;;;;;;;3.17;1.65;;;;;;;;;;4755485;30;20040;-73
2022/12/09 14:42:09;;;;;;;2.10;1.50;;;;;;;;;;4755167;30;20516;-73
2022/12/09 14:44:50;;;;;;;4.13;2.33;;;;;;;;;;4755119;30;20639;-73
2022/12/09 14:47:25;;;;;;;10.70;4.82;;;;;;;;;;4755300;30;20153;-73
2022/12/09 14:49:53;;;;;;;17.35;7.32;;;;;;;;;;4756081;30;20106;-73